Time;durP1;ratioP1;P1;durP2;ratioP2;P2;SDS_P1;SDS_P2;PMS_P1;PMS_P2;Temp;Humidity;BMP_temperature;BMP_pressure;BME280_temperature;BME280_humidity;BME280_pressure;Samples;Min_cycle;Max_cycle;Signal;HPM_P1;HPM_P2
2022/11/02 00:00:12;;;;;;;1.58;1.20;;;;;;;10.15;100.00;99054.56;4134589;28;21163;-46
2022/11/02 00:02:14;;;;;;;0.98;0.98;;;;;;;10.24;100.00;99047.69;4149849;28;20220;-46
2022/11/02 00:04:15;;;;;;;2.08;1.38;;;;;;;10.18;100.00;99048.59;4151489;28;20244;-46
2022/11/02 00:06:17;;;;;;;1.60;1.50;;;;;;;10.19;100.00;99053.00;4136166;28;20585;-46
2022/11/02 00:08:19;;;;;;;2.30;1.23;;;;;;;10.19;100.00;99051.13;4151032;28;20234;-47
2022/11/02 00:10:22;;;;;;;1.42;0.85;;;;;;;10.23;100.00;99054.22;4140543;28;20241;-46
2022/11/02 00:12:23;;;;;;;3.88;1.50;;;;;;;10.18;100.00;99051.34;4137167;28;20226;-47
2022/11/02 00:14:25;;;;;;;5.50;1.15;;;;;;;10.17;100.00;99050.53;4143135;28;20197;-48
2022/11/02 00:16:26;;;;;;;2.38;1.00;;;;;;;10.24;100.00;99042.19;4166149;28;20201;-47
2022/11/02 00:18:28;;;;;;;1.00;1.00;;;;;;;10.27;100.00;99041.75;4128600;28;20209;-45
2022/11/02 00:20:31;;;;;;;1.58;1.48;;;;;;;10.36;100.00;99045.81;4123214;28;20747;-46
2022/11/02 00:22:32;;;;;;;3.55;1.15;;;;;;;10.33;100.00;99041.63;4140711;28;20228;-46
2022/11/02 00:24:34;;;;;;;1.95;1.15;;;;;;;10.31;100.00;99048.41;4166043;28;20220;-46
2022/11/02 00:26:36;;;;;;;5.28;1.42;;;;;;;10.29;100.00;99050.53;4137498;28;20679;-46
2022/11/02 00:28:38;;;;;;;3.03;1.55;;;;;;;10.24;100.00;99048.53;4151615;28;20201;-46
2022/11/02 00:30:40;;;;;;;0.75;0.75;;;;;;;10.24;100.00;99044.94;4165997;28;20204;-46
2022/11/02 00:32:41;;;;;;;1.85;1.75;;;;;;;10.25;100.00;99044.72;4156233;28;20402;-46
2022/11/02 00:34:43;;;;;;;2.08;1.20;;;;;;;10.32;100.00;99047.31;4153028;28;20643;-46
2022/11/02 00:36:44;;;;;;;0.70;0.70;;;;;;;10.26;100.00;99040.06;4127184;28;20202;-47
2022/11/02 00:38:46;;;;;;;2.35;1.30;;;;;;;10.25;100.00;99049.34;4136622;28;20205;-47
2022/11/02 00:40:48;;;;;;;1.95;1.00;;;;;;;10.21;100.00;99038.03;4141783;28;20606;-45
2022/11/02 00:42:49;;;;;;;1.67;1.25;;;;;;;10.19;100.00;99044.81;4139071;28;20221;-46
2022/11/02 00:44:51;;;;;;;0.93;0.85;;;;;;;10.22;100.00;99031.50;4154905;28;20204;-46
2022/11/02 00:46:53;;;;;;;1.20;1.00;;;;;;;10.23;100.00;99046.00;4150243;28;20205;-46
2022/11/02 00:48:54;;;;;;;4.55;0.90;;;;;;;10.22;100.00;99042.44;4142314;28;20202;-46
2022/11/02 00:50:56;;;;;;;1.83;1.10;;;;;;;10.17;100.00;99036.00;4142869;28;20561;-46
2022/11/02 00:52:57;;;;;;;1.25;1.25;;;;;;;10.21;100.00;99050.91;4151191;28;20204;-46
2022/11/02 00:54:59;;;;;;;1.08;0.98;;;;;;;10.23;100.00;99043.28;4151283;28;20263;-45
2022/11/02 00:57:01;;;;;;;2.88;1.48;;;;;;;10.32;100.00;99047.31;4143758;28;20296;-46
2022/11/02 00:59:03;;;;;;;2.20;1.27;;;;;;;10.36;100.00;99045.81;4152468;28;20340;-45
2022/11/02 01:01:05;;;;;;;0.80;0.80;;;;;;;10.35;100.00;99041.41;4152381;28;20215;-46
2022/11/02 01:03:07;;;;;;;3.22;1.45;;;;;;;10.30;100.00;99052.22;4142934;28;20300;-46
2022/11/02 01:05:10;;;;;;;5.70;1.38;;;;;;;10.42;100.00;99042.13;4141674;28;20722;-46
2022/11/02 01:07:11;;;;;;;0.82;0.80;;;;;;;10.35;100.00;99050.44;4123964;28;20240;-46
2022/11/02 01:09:14;;;;;;;2.65;1.73;;;;;;;10.41;100.00;99044.00;4142334;28;20208;-46
2022/11/02 01:11:18;;;;;;;6.13;1.63;;;;;;;10.50;100.00;99036.28;4142102;28;20663;-46
2022/11/02 01:13:20;;;;;;;1.05;0.95;;;;;;;10.54;100.00;99042.97;4142726;28;20216;-46
2022/11/02 01:15:22;;;;;;;5.75;1.60;;;;;;;10.56;100.00;99040.81;4165071;28;20247;-46
2022/11/02 01:17:23;;;;;;;2.40;1.98;;;;;;;10.53;100.00;99041.28;4136942;28;20234;-45
2022/11/02 01:19:25;;;;;;;4.80;1.20;;;;;;;10.50;100.00;99042.63;4127620;28;20198;-46
2022/11/02 01:21:27;;;;;;;1.35;0.90;;;;;;;10.51;100.00;99041.53;4136615;28;20241;-46
2022/11/02 01:23:33;;;;;;;1.23;0.90;;;;;;;10.51;100.00;99037.97;4136614;28;20221;-46
2022/11/02 01:25:35;;;;;;;1.38;1.10;;;;;;;10.40;100.00;99042.34;4142344;28;20209;-46
2022/11/02 01:27:37;;;;;;;2.10;1.23;;;;;;;10.49;100.00;99040.91;4151609;28;20221;-46
2022/11/02 01:29:39;;;;;;;2.75;1.35;;;;;;;10.45;100.00;99036.16;4139686;28;20722;-45
2022/11/02 01:31:40;;;;;;;2.67;1.02;;;;;;;10.52;100.00;99034.16;4142647;28;20225;-46
2022/11/02 01:33:44;;;;;;;1.55;1.08;;;;;;;10.54;100.00;99032.03;4138070;28;20281;-46
2022/11/02 01:35:45;;;;;;;2.63;0.88;;;;;;;10.48;100.00;99022.03;4139513;28;20649;-45
2022/11/02 01:37:47;;;;;;;1.80;1.25;;;;;;;10.34;100.00;99023.31;4136560;28;20304;-46
2022/11/02 01:39:49;;;;;;;1.75;1.17;;;;;;;10.26;100.00;99029.97;4140060;28;20236;-46
2022/11/02 01:41:52;;;;;;;2.40;1.00;;;;;;;10.31;100.00;99026.53;4139230;28;20233;-46
2022/11/02 01:43:57;;;;;;;1.30;0.88;;;;;;;10.21;100.00;99020.81;4140828;28;20225;-46
2022/11/02 01:45:59;;;;;;;3.05;1.27;;;;;;;10.29;100.00;99028.66;4139018;28;20552;-46
2022/11/02 01:48:01;;;;;;;2.67;1.38;;;;;;;10.23;100.00;99029.59;4142582;28;20617;-47
2022/11/02 01:50:07;;;;;;;2.40;1.15;;;;;;;10.14;100.00;99026.38;4142473;28;20306;-46
2022/11/02 01:52:16;;;;;;;2.78;1.00;;;;;;;10.12;100.00;99023.03;4140382;28;20225;-46
2022/11/02 01:54:23;;;;;;;1.13;1.00;;;;;;;10.13;100.00;99029.31;4138214;28;20338;-45
2022/11/02 01:56:29;;;;;;;1.75;1.00;;;;;;;10.20;100.00;99024.59;4125157;28;20619;-46
2022/11/02 01:58:33;;;;;;;2.53;0.85;;;;;;;10.19;100.00;99028.41;4136414;28;20292;-46
2022/11/02 02:00:37;;;;;;;2.40;1.20;;;;;;;10.20;100.00;99024.59;4149408;28;20662;-46
2022/11/02 02:02:53;;;;;;;0.90;0.90;;;;;;;10.19;100.00;99025.66;4139102;28;20967;-46
2022/11/02 02:05:02;;;;;;;5.03;2.00;;;;;;;10.16;100.00;99021.50;4147698;28;20225;-46
2022/11/02 02:07:04;;;;;;;10.98;1.40;;;;;;;10.25;100.00;99033.78;4150292;28;20633;-46
2022/11/02 02:09:06;;;;;;;1.90;1.23;;;;;;;10.23;100.00;99029.59;4140053;28;20205;-46
2022/11/02 02:11:31;;;;;;;1.25;1.05;;;;;;;10.36;100.00;99018.44;4150803;28;20204;-46
2022/11/02 02:13:32;;;;;;;3.85;1.08;;;;;;;10.38;100.00;99019.88;4134736;28;20201;-46
2022/11/02 02:15:45;;;;;;;1.73;1.13;;;;;;;10.37;100.00;99025.56;4121628;28;20217;-46
2022/11/02 02:17:52;;;;;;;1.40;1.00;;;;;;;10.38;100.00;99019.03;4150131;28;20212;-46
2022/11/02 02:20:38;;;;;;;1.23;1.13;;;;;;;10.41;100.00;99018.56;4136932;28;20244;-46
2022/11/02 02:22:43;;;;;;;1.50;1.27;;;;;;;10.50;100.00;99014.41;4119729;28;20236;-46
2022/11/02 02:25:04;;;;;;;6.15;2.38;;;;;;;10.48;100.00;99016.56;4164413;28;20685;-46
2022/11/02 02:27:31;;;;;;;1.30;1.00;;;;;;;10.48;100.00;99016.56;4136883;28;20209;-46
2022/11/02 02:29:45;;;;;;;3.45;1.40;;;;;;;10.49;100.00;99023.69;4150861;28;20194;-46
2022/11/02 02:32:14;;;;;;;1.30;1.20;;;;;;;10.52;100.00;99020.47;4140998;28;20229;-46
2022/11/02 02:34:19;;;;;;;2.00;1.17;;;;;;;10.57;100.00;99020.59;4140224;28;20205;-46
2022/11/02 02:36:23;;;;;;;0.93;0.90;;;;;;;10.58;100.00;99016.78;4135120;28;20217;-46
2022/11/02 02:39:14;;;;;;;1.52;0.95;;;;;;;10.69;100.00;99007.75;4148417;28;20205;-46
2022/11/02 02:41:36;;;;;;;1.38;0.98;;;;;;;10.76;100.00;99002.97;4121251;28;20226;-46
2022/11/02 02:43:57;;;;;;;1.52;0.90;;;;;;;10.81;100.00;99005.84;4139515;28;20213;-46
2022/11/02 02:46:08;;;;;;;4.45;1.63;;;;;;;10.79;100.00;99009.63;4138425;28;20198;-46
2022/11/02 02:48:20;;;;;;;1.67;1.40;;;;;;;10.81;100.00;99011.31;4136603;28;20304;-46
2022/11/02 02:50:26;;;;;;;2.22;1.35;;;;;;;10.85;100.00;99018.81;4135715;28;20207;-45
2022/11/02 02:52:29;;;;;;;1.67;1.23;;;;;;;10.88;100.00;99027.38;4140513;28;20229;-46
2022/11/02 02:54:35;;;;;;;2.90;1.10;;;;;;;10.95;99.76;99025.34;4147726;28;20316;-46
2022/11/02 02:56:41;;;;;;;1.77;1.45;;;;;;;10.94;99.64;99017.34;4150551;28;20201;-46
2022/11/02 02:58:49;;;;;;;2.40;1.50;;;;;;;10.97;99.64;99016.91;4138378;28;20954;-46
2022/11/02 03:00:52;;;;;;;1.48;1.20;;;;;;;11.02;99.10;99022.47;4137463;28;20673;-46
2022/11/02 03:03:00;;;;;;;2.67;1.10;;;;;;;11.00;99.18;99022.72;4138507;28;20213;-50
2022/11/02 03:05:04;;;;;;;10.38;1.55;;;;;;;11.03;99.11;99019.50;4123595;28;20221;-46
2022/11/02 03:07:07;;;;;;;0.80;0.80;;;;;;;11.03;99.02;99010.47;4153642;28;20202;-46
2022/11/02 03:09:22;;;;;;;4.30;1.98;;;;;;;11.04;98.80;99017.59;4138778;28;20342;-46
2022/11/02 03:11:24;;;;;;;2.03;1.73;;;;;;;11.00;99.20;99014.50;4157006;28;20236;-46
2022/11/02 03:14:07;;;;;;;1.85;1.50;;;;;;;10.97;99.68;99016.91;4152617;28;20205;-46
2022/11/02 03:16:49;;;;;;;1.10;1.00;;;;;;;11.02;99.08;99015.09;4142771;28;20233;-46
2022/11/02 03:18:59;;;;;;;6.70;0.80;;;;;;;10.99;98.89;99017.47;4134873;28;20197;-46
2022/11/02 03:21:49;;;;;;;1.92;1.50;;;;;;;10.97;99.49;99023.19;4133027;28;20200;-46
2022/11/02 03:24:23;;;;;;;2.42;1.40;;;;;;;10.97;99.56;99014.97;4131944;28;20208;-45
2022/11/02 03:26:32;;;;;;;2.45;1.55;;;;;;;10.98;99.12;99019.38;4139792;28;20560;-46
2022/11/02 03:28:58;;;;;;;4.20;2.35;;;;;;;10.97;99.51;99012.22;4139790;28;20207;-46
2022/11/02 03:31:35;;;;;;;4.30;1.75;;;;;;;10.99;99.77;99018.31;4120934;28;20205;-46
2022/11/02 03:33:44;;;;;;;4.82;1.77;;;;;;;11.04;99.48;99018.41;4150836;28;20207;-46
2022/11/02 03:35:55;;;;;;;3.50;1.92;;;;;;;11.04;99.69;99034.03;4129985;28;20193;-47
2022/11/02 03:38:03;;;;;;;17.20;6.95;;;;;;;10.98;100.00;99030.31;4149416;28;20215;-46
2022/11/02 03:40:23;;;;;;;12.40;3.95;;;;;;;11.09;99.65;99032.22;4141791;28;20336;-46
2022/11/02 03:42:26;;;;;;;17.20;7.40;;;;;;;11.09;99.77;99037.69;4123681;28;20226;-46
2022/11/02 03:44:29;;;;;;;3.30;2.50;;;;;;;11.12;99.57;99034.47;4132567;28;20222;-46
2022/11/02 03:46:31;;;;;;;3.83;2.08;;;;;;;11.14;99.06;99045.19;4150797;28;20207;-46
2022/11/02 03:48:39;;;;;;;2.15;1.30;;;;;;;11.16;99.59;99043.88;4138247;28;20644;-46
2022/11/02 03:50:46;;;;;;;1.77;1.27;;;;;;;11.16;99.43;99052.09;4139007;28;20192;-46
2022/11/02 03:52:51;;;;;;;0.98;0.90;;;;;;;11.25;99.08;99056.13;4133683;28;20234;-46
2022/11/02 03:55:19;;;;;;;1.67;1.48;;;;;;;11.23;99.54;99063.75;4124665;28;20585;-46
2022/11/02 03:57:27;;;;;;;13.25;1.70;;;;;;;11.21;99.19;99060.44;4126774;28;20289;-46
2022/11/02 03:59:30;;;;;;;5.30;0.90;;;;;;;11.20;99.77;99057.94;4148506;28;20201;-46
2022/11/02 04:01:37;;;;;;;2.30;1.48;;;;;;;11.18;100.00;99058.16;4148532;28;21157;-45
2022/11/02 04:03:43;;;;;;;6.05;1.27;;;;;;;11.24;99.79;99057.19;4145784;28;20276;-46
2022/11/02 04:05:44;;;;;;;1.90;1.10;;;;;;;11.24;99.66;99062.69;4133553;28;20309;-46
2022/11/02 04:10:09;;;;;;;3.08;1.65;;;;;;;11.27;100.00;99072.31;4150100;28;20208;-46
2022/11/02 04:14:37;;;;;;;1.35;1.17;;;;;;;11.35;100.00;99063.72;4150041;28;20193;-46
2022/11/02 04:16:39;;;;;;;10.60;1.73;;;;;;;11.35;100.00;99080.16;4132309;28;20777;-46
2022/11/02 04:21:05;;;;;;;4.15;1.42;;;;;;;11.39;100.00;99071.25;4150756;28;20278;-46
2022/11/02 04:25:27;;;;;;;5.93;1.30;;;;;;;11.42;99.91;99075.38;4149728;28;20584;-46
2022/11/02 04:27:29;;;;;;;6.93;1.10;;;;;;;11.43;100.00;99072.41;4139184;28;20212;-46
2022/11/02 04:29:31;;;;;;;5.47;2.08;;;;;;;11.41;99.95;99076.47;4123978;28;20245;-46
2022/11/02 04:31:32;;;;;;;0.90;0.90;;;;;;;11.37;100.00;99084.34;4150347;28;20261;-46
2022/11/02 04:33:34;;;;;;;2.13;1.40;;;;;;;11.31;100.00;99077.06;4136272;28;20213;-46
2022/11/02 04:35:36;;;;;;;4.93;1.60;;;;;;;11.31;100.00;99085.28;4135669;28;20241;-46
2022/11/02 04:39:59;;;;;;;2.35;1.55;;;;;;;11.25;100.00;99091.72;4151967;28;20197;-46
2022/11/02 04:42:01;;;;;;;2.83;1.00;;;;;;;11.29;100.00;99095.69;4137309;28;20881;-46
2022/11/02 04:44:03;;;;;;;3.47;1.55;;;;;;;11.23;100.00;99093.91;4137869;28;20228;-46
2022/11/02 04:46:05;;;;;;;1.85;1.02;;;;;;;11.26;100.00;99098.06;4150489;28;21432;-46
2022/11/02 04:48:08;;;;;;;3.22;2.03;;;;;;;11.22;100.00;99103.19;4140391;28;20328;-46
2022/11/02 04:50:11;;;;;;;1.42;1.33;;;;;;;11.22;100.00;99113.31;4144719;28;20197;-47
2022/11/02 04:52:14;;;;;;;3.28;1.33;;;;;;;11.26;100.00;99114.50;4139595;28;20229;-48
2022/11/02 04:54:15;;;;;;;1.40;1.20;;;;;;;11.28;100.00;99118.66;4152140;28;20201;-45
2022/11/02 04:56:17;;;;;;;4.38;1.30;;;;;;;11.26;100.00;99115.34;4142424;28;20229;-46
2022/11/02 04:58:19;;;;;;;6.68;1.50;;;;;;;11.21;100.00;99123.44;4147801;28;20201;-46
2022/11/02 05:00:21;;;;;;;4.38;2.25;;;;;;;11.26;100.00;99118.09;4147105;28;20212;-46
2022/11/02 05:02:23;;;;;;;3.42;1.88;;;;;;;11.28;100.00;99117.81;4132669;28;20229;-46
2022/11/02 05:04:25;;;;;;;3.63;2.60;;;;;;;11.24;100.00;99112.00;4133620;28;20252;-45
2022/11/02 05:06:26;;;;;;;7.05;1.77;;;;;;;11.25;100.00;99110.91;4137712;28;20308;-46
2022/11/02 05:08:28;;;;;;;6.75;2.17;;;;;;;11.20;100.00;99119.03;4153557;28;20239;-46
2022/11/02 05:10:30;;;;;;;1.98;1.40;;;;;;;11.21;100.00;99117.97;4151125;28;20201;-46
2022/11/02 05:12:31;;;;;;;1.95;1.40;;;;;;;11.22;100.00;99119.63;4140377;28;20221;-46
2022/11/02 05:14:33;;;;;;;2.47;1.20;;;;;;;11.19;100.00;99120.13;4126398;28;20206;-46
2022/11/02 05:16:35;;;;;;;2.10;1.17;;;;;;;11.20;100.00;99120.94;4133660;28;20206;-46
2022/11/02 05:18:37;;;;;;;3.60;1.52;;;;;;;11.17;100.00;99132.38;4141299;28;20296;-47
2022/11/02 05:20:38;;;;;;;1.45;1.25;;;;;;;11.16;100.00;99123.31;4151469;28;20227;-46
2022/11/02 05:22:41;;;;;;;6.18;1.30;;;;;;;11.13;100.00;99129.28;4137919;28;20621;-46
2022/11/02 05:24:43;;;;;;;1.58;1.30;;;;;;;11.16;100.00;99134.28;4153290;28;20247;-46
2022/11/02 05:26:46;;;;;;;5.30;1.40;;;;;;;11.11;100.00;99130.59;4133283;28;20214;-46
2022/11/02 05:28:54;;;;;;;5.07;1.55;;;;;;;11.13;100.00;99132.03;4140255;28;20671;-46
2022/11/02 05:30:59;;;;;;;2.92;1.20;;;;;;;11.10;100.00;99135.22;4139020;28;20212;-46
2022/11/02 05:33:01;;;;;;;1.63;1.00;;;;;;;11.14;100.00;99125.47;4141601;28;20237;-46
2022/11/02 05:35:04;;;;;;;2.08;1.42;;;;;;;11.08;100.00;99128.31;4122516;28;20217;-46
2022/11/02 05:37:06;;;;;;;1.98;1.05;;;;;;;11.04;100.00;99132.63;4133403;28;20206;-48
2022/11/02 05:39:07;;;;;;;3.65;1.70;;;;;;;11.04;100.00;99138.91;4136590;28;20329;-46
2022/11/02 05:41:09;;;;;;;1.80;1.33;;;;;;;11.05;100.00;99140.56;4131058;28;20706;-46
2022/11/02 05:43:11;;;;;;;3.17;1.60;;;;;;;11.03;100.00;99142.72;4119529;28;20631;-47
2022/11/02 05:45:13;;;;;;;1.77;1.48;;;;;;;10.99;100.00;99147.03;4117030;28;20218;-46
2022/11/02 05:47:15;;;;;;;0.75;0.75;;;;;;;11.02;100.00;99156.66;4129597;28;20210;-46
2022/11/02 05:49:16;;;;;;;1.50;1.30;;;;;;;11.05;100.00;99151.53;4129289;28;20683;-46
2022/11/02 05:51:18;;;;;;;1.80;1.45;;;;;;;11.03;100.00;99150.94;4121381;28;20606;-46
2022/11/02 05:53:20;;;;;;;8.05;1.38;;;;;;;11.06;100.00;99158.69;4138770;28;20734;-46
2022/11/02 05:55:21;;;;;;;3.10;1.50;;;;;;;11.01;100.00;99161.31;4131486;28;20221;-46
2022/11/02 05:57:23;;;;;;;2.65;1.17;;;;;;;10.99;100.00;99152.50;4134388;28;20236;-46
2022/11/02 05:59:25;;;;;;;6.07;1.15;;;;;;;11.05;100.00;99154.28;4149191;28;20209;-45
2022/11/02 06:01:26;;;;;;;1.20;1.08;;;;;;;11.00;100.00;99161.53;4138241;28;20253;-46
2022/11/02 06:03:30;;;;;;;1.17;1.08;;;;;;;11.00;100.00;99165.13;4133969;28;20690;-46
2022/11/02 06:05:32;;;;;;;6.32;1.42;;;;;;;10.95;100.00;99167.72;4140909;28;20323;-46
2022/11/02 06:07:34;;;;;;;3.33;1.42;;;;;;;10.97;100.00;99162.03;4133672;28;20220;-46
2022/11/02 06:09:36;;;;;;;11.38;1.63;;;;;;;10.96;100.00;99174.88;4149183;28;20340;-46
2022/11/02 06:11:37;;;;;;;4.22;1.35;;;;;;;10.87;100.00;99163.69;4136287;28;21980;-46
2022/11/02 06:13:40;;;;;;;2.08;1.30;;;;;;;10.88;100.00;99172.50;4147543;28;20561;-46
2022/11/02 06:15:42;;;;;;;1.90;1.35;;;;;;;10.82;100.00;99167.94;4150884;28;20621;-46
2022/11/02 06:17:44;;;;;;;1.25;1.10;;;;;;;10.77;100.00;99170.56;4163475;23;20232;-86
2022/11/02 06:19:55;;;;;;;2.03;1.10;;;;;;;10.73;100.00;99173.16;4160713;28;20271;-86
2022/11/02 06:21:56;;;;;;;12.48;1.50;;;;;;;10.72;100.00;99177.81;4157620;28;20217;-85
2022/11/02 06:23:58;;;;;;;2.47;1.25;;;;;;;10.78;100.00;99172.22;4155359;28;20224;-85
2022/11/02 06:26:00;;;;;;;1.25;0.90;;;;;;;10.72;100.00;99185.19;4159851;28;20259;-85
2022/11/02 06:28:01;;;;;;;1.45;1.15;;;;;;;10.64;100.00;99191.00;4142101;28;20220;-86
2022/11/02 06:30:04;;;;;;;5.47;1.40;;;;;;;10.61;100.00;99196.94;4144302;28;20225;-84
2022/11/02 06:32:24;;;;;;;5.93;1.30;;;;;;;10.61;100.00;99196.94;4158631;28;20205;-86
2022/11/02 06:34:29;;;;;;;8.25;2.97;;;;;;;10.65;100.00;99203.59;4156575;28;20204;-85
2022/11/02 06:36:46;;;;;;;12.40;6.28;;;;;;;10.58;100.00;99208.34;4148072;28;20238;-85
2022/11/02 06:38:47;;;;;;;7.07;4.18;;;;;;;10.60;100.00;99206.19;4139917;28;20250;-85
2022/11/02 06:41:05;;;;;;;4.68;2.88;;;;;;;10.57;100.00;99206.69;4139736;28;20209;-85
2022/11/02 06:43:12;;;;;;;2.85;2.28;;;;;;;10.60;100.00;99211.69;4173114;28;20217;-85
2022/11/02 06:45:38;;;;;;;4.95;1.98;;;;;;;10.63;100.00;99223.03;4171995;28;20227;-84
2022/11/02 06:47:42;;;;;;;2.13;1.98;;;;;;;10.58;100.00;99222.03;4158009;28;20224;-84
2022/11/02 06:49:50;;;;;;;2.42;1.70;;;;;;;10.59;100.00;99230.00;4160247;28;20659;-85
2022/11/02 06:52:00;;;;;;;3.55;1.80;;;;;;;10.64;100.00;99232.03;4182418;28;20204;-85
2022/11/02 06:54:02;;;;;;;2.85;1.90;;;;;;;10.60;100.00;99233.56;4146541;28;20714;-85
2022/11/02 06:56:25;;;;;;;1.70;0.85;;;;;;;10.60;100.00;99244.50;4164366;28;20291;-85
2022/11/02 06:58:34;;;;;;;5.82;1.45;;;;;;;10.63;100.00;99246.81;4163544;28;20213;-85
2022/11/02 07:00:54;;;;;;;2.80;2.25;;;;;;;10.63;100.00;99249.53;4163005;28;20208;-85
2022/11/02 07:03:05;;;;;;;4.10;1.73;;;;;;;10.67;100.00;99250.75;4155166;28;20209;-84
2022/11/02 07:05:12;;;;;;;1.95;1.30;;;;;;;10.65;100.00;99255.63;4145227;28;20235;-86
2022/11/02 07:07:14;;;;;;;1.58;1.40;;;;;;;10.72;100.00;99248.13;4162171;28;20201;-84
2022/11/02 07:09:17;;;;;;;2.20;1.38;;;;;;;10.71;100.00;99261.00;4154779;28;20223;-83
2022/11/02 07:11:19;;;;;;;1.75;1.40;;;;;;;10.71;100.00;99260.16;4158324;28;20254;-84
2022/11/02 07:13:25;;;;;;;2.08;1.88;;;;;;;10.77;100.00;99267.44;4140725;28;20648;-84
2022/11/02 07:15:27;;;;;;;2.13;1.13;;;;;;;10.81;100.00;99268.66;4157540;28;20220;-85
2022/11/02 07:17:40;;;;;;;1.65;1.50;;;;;;;10.82;100.00;99276.63;4158697;28;20629;-85
2022/11/02 07:19:44;;;;;;;1.67;1.58;;;;;;;10.89;100.00;99278.19;4154524;28;20236;-86
2022/11/02 07:21:47;;;;;;;3.13;1.10;;;;;;;10.88;100.00;99280.34;4159138;28;20315;-85
2022/11/02 07:23:49;;;;;;;3.97;1.58;;;;;;;10.89;100.00;99283.69;4139723;28;20253;-83
2022/11/02 07:25:51;;;;;;;2.83;1.40;;;;;;;10.92;100.00;99287.84;4169677;28;20247;-85
2022/11/02 07:27:54;;;;;;;1.77;1.67;;;;;;;10.96;100.00;99298.09;4156425;28;20224;-84
2022/11/02 07:30:04;;;;;;;4.55;1.35;;;;;;;10.97;100.00;99291.56;4154632;28;20224;-85
2022/11/02 07:32:07;;;;;;;5.07;1.45;;;;;;;11.04;100.00;99299.69;4150940;28;20204;-85
2022/11/02 07:34:10;;;;;;;8.77;1.08;;;;;;;11.11;100.00;99301.22;4155266;28;20596;-85
2022/11/02 07:36:17;;;;;;;2.92;1.25;;;;;;;11.13;100.00;99301.00;4140463;28;20450;-85
2022/11/02 07:38:26;;;;;;;3.95;1.67;;;;;;;11.40;100.00;99307.72;4155608;28;20292;-85
2022/11/02 07:40:29;;;;;;;2.88;1.08;;;;;;;11.91;100.00;99311.50;4141752;28;20296;-85
2022/11/02 07:42:33;;;;;;;2.10;1.15;;;;;;;12.34;99.14;99322.91;4147814;28;20636;-85
2022/11/02 07:44:34;;;;;;;1.48;1.17;;;;;;;12.48;97.48;99313.31;4156286;28;20239;-86
2022/11/02 07:46:36;;;;;;;4.55;2.03;;;;;;;12.65;95.49;99319.69;4139629;28;20220;-86
2022/11/02 07:48:37;;;;;;;2.42;1.13;;;;;;;13.03;94.55;99325.44;4157495;28;20428;-85
2022/11/02 07:50:40;;;;;;;1.42;0.98;;;;;;;13.29;93.51;99327.59;4171546;28;20251;-86
2022/11/02 07:52:56;;;;;;;8.38;1.40;;;;;;;13.46;92.31;99322.09;4155809;28;20206;-85
2022/11/02 07:54:57;;;;;;;3.60;1.25;;;;;;;13.37;92.33;99329.91;4171755;28;20245;-85
2022/11/02 07:57:05;;;;;;;2.10;1.58;;;;;;;13.24;92.77;99338.47;4137943;28;20206;-85
2022/11/02 07:59:11;;;;;;;2.33;1.25;;;;;;;13.29;92.28;99326.75;4159492;28;20226;-86
2022/11/02 08:01:22;;;;;;;2.15;1.23;;;;;;;13.03;92.68;99339.19;4143073;28;20206;-86
2022/11/02 08:03:23;;;;;;;0.88;0.85;;;;;;;13.31;91.60;99322.66;4137474;28;20297;-86
2022/11/02 08:05:33;;;;;;;7.10;1.65;;;;;;;13.61;91.13;99336.94;4155853;28;20212;-86
2022/11/02 08:07:47;;;;;;;;;;;;;;;;;;;;;
2022/11/02 08:09:49;;;;;;;4.43;1.23;;;;;;;13.65;89.98;99332.63;4155382;28;20236;-86
2022/11/02 08:11:51;;;;;;;3.03;1.50;;;;;;;14.07;89.91;99338.50;4142867;28;20297;-86
2022/11/02 08:13:53;;;;;;;3.55;1.27;;;;;;;13.96;89.43;99344.97;4173976;28;20275;-87
2022/11/02 08:15:54;;;;;;;2.95;1.48;;;;;;;14.08;89.58;99343.78;4155325;28;20208;-85
2022/11/02 08:18:17;;;;;;;1.17;0.80;;;;;;;14.02;88.74;99339.25;4138149;28;20243;-85
2022/11/02 08:20:21;;;;;;;0.80;0.80;;;;;;;14.09;89.44;99344.63;4158282;28;20224;-86
2022/11/02 08:22:41;;;;;;;0.73;0.73;;;;;;;14.09;87.04;99345.44;4154709;28;20219;-85
2022/11/02 08:24:47;;;;;;;1.40;1.30;;;;;;;14.05;87.83;99348.94;4173568;28;20631;-86
2022/11/02 08:27:09;;;;;;;3.13;1.60;;;;;;;14.43;87.12;99343.50;4162979;28;20221;-86
2022/11/02 08:29:10;;;;;;;4.00;1.02;;;;;;;14.58;85.38;99336.22;4170198;28;20227;-86
2022/11/02 08:31:48;;;;;;;;;;;;;;;;;;;;;
2022/11/02 08:33:58;;;;;;;3.35;1.00;;;;;;;14.75;82.85;99350.78;4170650;28;20200;-87
2022/11/02 08:36:21;;;;;;;1.00;0.90;;;;;;;14.43;83.75;99346.25;4154858;28;20205;-86
2022/11/02 08:38:43;;;;;;;3.95;1.42;;;;;;;14.83;83.57;99355.84;4158715;28;20236;-86
2022/11/02 08:40:45;;;;;;;4.72;1.45;;;;;;;15.10;81.17;99345.69;4173497;28;20315;-86
2022/11/02 08:42:54;;;;;;;3.83;1.50;;;;;;;14.90;81.18;99342.72;4157479;28;20231;-85
2022/11/02 08:45:02;;;;;;;5.40;1.42;;;;;;;14.75;81.14;99348.03;4140752;28;20209;-86
2022/11/02 08:47:32;;;;;;;4.38;1.45;;;;;;;15.25;79.81;99350.56;4171855;28;20330;-86
2022/11/02 08:49:51;;;;;;;2.47;0.93;;;;;;;15.24;81.27;99349.72;4158671;28;20267;-85
2022/11/02 08:52:13;;;;;;;4.63;1.20;;;;;;;14.50;81.80;99344.94;4171168;28;20770;-85
2022/11/02 08:54:20;;;;;;;2.75;1.65;;;;;;;14.17;83.69;99347.75;4154219;28;20736;-85
2022/11/02 08:56:21;;;;;;;2.83;1.00;;;;;;;14.40;84.85;99344.81;4171934;28;20214;-85
2022/11/02 08:58:26;;;;;;;2.72;1.38;;;;;;;14.37;84.30;99339.81;4169736;28;20203;-86
2022/11/02 09:00:40;;;;;;;6.18;1.63;;;;;;;14.87;83.64;99354.25;4154460;28;20233;-85
2022/11/02 09:03:08;;;;;;;2.72;0.93;;;;;;;15.41;81.30;99361.53;4141525;28;20694;-86
2022/11/02 09:05:34;;;;;;;3.30;1.20;;;;;;;15.48;79.90;99351.09;4153812;28;20224;-86
2022/11/02 09:07:39;;;;;;;6.68;2.05;;;;;;;14.85;80.35;99341.81;4150211;28;20291;-84
2022/11/02 09:09:55;;;;;;;1.92;1.40;;;;;;;14.17;81.91;99342.25;4161699;23;20773;-47
2022/11/02 09:11:57;;;;;;;3.35;1.27;;;;;;;13.97;82.48;99343.88;4144204;28;20213;-47
2022/11/02 09:13:58;;;;;;;5.13;1.80;;;;;;;13.94;83.51;99347.09;4154863;28;20301;-46
2022/11/02 09:16:01;;;;;;;9.60;1.13;;;;;;;14.66;81.98;99346.84;4122373;28;20700;-46
2022/11/02 09:18:05;;;;;;;1.92;1.17;;;;;;;14.86;79.81;99349.84;4155774;28;20205;-46
2022/11/02 09:20:07;;;;;;;1.67;0.95;;;;;;;15.62;78.70;99346.00;4158086;28;20998;-47
2022/11/02 09:22:09;;;;;;;4.47;1.67;;;;;;;15.69;76.31;99358.47;4126271;28;20229;-47
2022/11/02 09:24:11;;;;;;;2.85;1.35;;;;;;;15.69;76.92;99364.00;4139426;28;20214;-47
2022/11/02 09:26:13;;;;;;;1.38;0.70;;;;;;;15.30;76.68;99354.19;4141610;28;20312;-47
2022/11/02 09:28:15;;;;;;;8.82;1.55;;;;;;;15.68;77.43;99351.28;4157379;28;20700;-47
2022/11/02 09:30:25;;;;;;;2.35;1.17;;;;;;;15.83;76.41;99353.38;4137816;28;20212;-46
2022/11/02 09:32:28;;;;;;;3.05;0.98;;;;;;;16.21;75.33;99353.94;4156667;28;20224;-47
2022/11/02 09:34:30;;;;;;;5.97;1.27;;;;;;;16.47;73.72;99358.53;4156084;28;20208;-47
2022/11/02 09:36:32;;;;;;;6.63;1.08;;;;;;;16.19;74.83;99356.13;4140852;28;20205;-47
2022/11/02 09:38:34;;;;;;;1.50;0.90;;;;;;;15.74;75.37;99354.91;4140921;28;20300;-47
2022/11/02 09:40:41;;;;;;;2.20;0.85;;;;;;;16.00;74.70;99362.31;4138224;28;20202;-46
2022/11/02 09:42:54;;;;;;;1.23;0.85;;;;;;;15.70;75.63;99357.38;4155550;28;20275;-47
2022/11/02 09:44:59;;;;;;;4.30;1.10;;;;;;;15.98;74.50;99359.00;4155136;28;20201;-46
2022/11/02 09:47:10;;;;;;;4.03;1.20;;;;;;;16.24;74.37;99356.13;4141861;28;20222;-47
2022/11/02 09:49:33;;;;;;;3.00;1.95;;;;;;;16.27;75.37;99361.16;4141874;28;20212;-47
2022/11/02 09:51:38;;;;;;;2.55;0.93;;;;;;;16.06;73.89;99375.91;4138899;28;20233;-47
2022/11/02 09:53:58;;;;;;;2.88;1.27;;;;;;;15.94;74.65;99380.78;4141946;28;20209;-46
2022/11/02 09:56:01;;;;;;;2.08;1.38;;;;;;;16.27;73.71;99377.72;4140106;28;20296;-47
2022/11/02 09:58:09;;;;;;;9.48;2.08;;;;;;;16.28;73.49;99379.38;4140758;28;20216;-48
2022/11/02 10:00:19;;;;;;;5.07;1.13;;;;;;;15.90;73.17;99393.44;4136730;28;20219;-46
2022/11/02 10:02:26;;;;;;;1.52;0.70;;;;;;;16.39;71.23;99389.44;4151899;28;20232;-46
2022/11/02 10:04:40;;;;;;;1.90;1.00;;;;;;;16.42;71.14;99391.66;4153891;28;20212;-48